createdAt,value
2022-09-04T00:00:00.673Z,81.1
2022-09-04T00:01:00.831Z,80
2022-09-04T00:02:01.012Z,80.8
2022-09-04T00:03:01.128Z,81.7
2022-09-04T00:04:00.336Z,81.3
2022-09-04T00:05:00.563Z,81.5
2022-09-04T00:06:00.579Z,81.5
2022-09-04T00:07:00.744Z,81.4
2022-09-04T00:08:00.882Z,81.7
2022-09-04T00:09:01.032Z,81.3
2022-09-04T00:10:01.173Z,81.5
2022-09-04T00:11:00.319Z,82
2022-09-04T00:12:00.488Z,82.2
2022-09-04T00:13:00.615Z,81.5
2022-09-04T00:14:00.757Z,82
2022-09-04T00:15:00.906Z,82.2
2022-09-04T00:16:01.053Z,82.3
2022-09-04T00:17:01.291Z,82.4
2022-09-04T00:18:00.358Z,82.1
2022-09-04T00:19:00.488Z,81.8
2022-09-04T00:20:00.647Z,82.4
2022-09-04T00:21:00.798Z,82.4
2022-09-04T00:22:00.968Z,82.2
2022-09-04T00:23:01.095Z,82.3
2022-09-04T00:24:01.233Z,82.3
2022-09-04T00:25:00.372Z,82
2022-09-04T00:26:00.525Z,82.1
2022-09-04T00:27:00.687Z,82.4
2022-09-04T00:28:00.831Z,82.7
2022-09-04T00:29:00.970Z,82.7
2022-09-04T00:30:01.133Z,82.2
2022-09-04T00:32:00.372Z,82.3
2022-09-04T00:33:00.510Z,82.5
2022-09-04T00:34:00.657Z,82.7
2022-09-04T00:35:00.820Z,81.9
2022-09-04T00:36:00.944Z,82.1
2022-09-04T00:37:01.095Z,82.4
2022-09-04T00:38:01.246Z,82.2
2022-09-04T00:39:00.388Z,82.4
2022-09-04T00:40:00.679Z,82.8
2022-09-04T00:41:00.680Z,82.5
2022-09-04T00:42:00.820Z,82.6
2022-09-04T00:43:00.980Z,82.8
2022-09-04T00:44:01.119Z,82.9
2022-09-04T00:45:00.287Z,82.6
2022-09-04T00:46:00.717Z,82.8
2022-09-04T00:47:00.553Z,82.7
2022-09-04T00:48:00.714Z,82.8
2022-09-04T00:49:00.858Z,82.5
2022-09-04T00:50:01.022Z,82.5
2022-09-04T00:51:01.191Z,82.4
2022-09-04T00:52:00.310Z,82.9
2022-09-04T00:53:00.461Z,83
2022-09-04T00:54:00.609Z,82.3
2022-09-04T00:55:00.762Z,82.7
2022-09-04T00:56:00.967Z,82.3
2022-09-04T00:57:01.062Z,82.1
2022-09-04T00:58:01.208Z,82.3
2022-09-04T00:59:00.346Z,82.8
2022-09-04T01:00:00.504Z,82.4
2022-09-04T01:01:00.862Z,81.9
2022-09-04T01:02:00.915Z,82.4
2022-09-04T01:03:00.962Z,82.8
2022-09-04T01:04:01.131Z,82.6
2022-09-04T01:05:00.282Z,82.5
2022-09-04T01:06:00.433Z,82.3
2022-09-04T01:07:00.584Z,82.8
2022-09-04T01:08:00.725Z,83.1
2022-09-04T01:09:00.868Z,82.9
2022-09-04T01:10:01.045Z,82.3
2022-09-04T01:11:01.169Z,81.7
2022-09-04T01:12:00.313Z,81.8
2022-09-04T01:13:00.461Z,82
2022-09-04T01:14:00.613Z,82.1
2022-09-04T01:15:00.775Z,82.3
2022-09-04T01:16:00.977Z,82.1
2022-09-04T01:17:01.081Z,82.1
2022-09-04T01:18:01.225Z,81.8
2022-09-04T01:19:00.357Z,81
2022-09-04T01:20:00.498Z,81
2022-09-04T01:21:00.674Z,80.9
2022-09-04T01:22:00.785Z,80.7
2022-09-04T01:23:00.943Z,81
2022-09-04T01:24:01.097Z,81.3
2022-09-04T01:25:01.250Z,80.3
2022-09-04T01:26:00.397Z,80.3
2022-09-04T01:27:00.541Z,81
2022-09-04T01:28:00.680Z,82.6
2022-09-04T01:29:00.832Z,82.6
2022-09-04T01:30:00.969Z,82.1
2022-09-04T01:31:01.111Z,82.7
2022-09-04T01:32:01.383Z,83
2022-09-04T01:33:00.394Z,83.1
2022-09-04T01:34:00.530Z,83.1
2022-09-04T01:35:00.675Z,83.1
2022-09-04T01:36:00.828Z,83.1
2022-09-04T01:37:01.001Z,83.2
2022-09-04T01:38:01.131Z,82.9
2022-09-04T01:39:00.273Z,83.1
2022-09-04T01:40:00.502Z,83.1
2022-09-04T01:41:00.580Z,83
2022-09-04T01:42:00.740Z,83
2022-09-04T01:43:00.865Z,82.9
2022-09-04T01:44:01.008Z,82.6
2022-09-04T01:45:01.161Z,82.2
2022-09-04T01:46:00.373Z,81.1
2022-09-04T01:47:00.477Z,81.5
2022-09-04T01:48:00.623Z,82.2
2022-09-04T01:49:00.749Z,82.6
2022-09-04T01:50:00.891Z,83.2
2022-09-04T01:51:01.047Z,83.2
2022-09-04T01:52:01.211Z,83.5
2022-09-04T01:53:00.330Z,83.6
2022-09-04T01:54:00.490Z,83.5
2022-09-04T01:55:00.640Z,82.9
2022-09-04T01:56:00.776Z,82.6
2022-09-04T01:57:00.947Z,83.2
2022-09-04T01:58:01.077Z,83
2022-09-04T01:59:01.229Z,83
2022-09-04T02:00:00.369Z,83.1
2022-09-04T02:01:00.543Z,83
2022-09-04T02:02:00.761Z,82.8
2022-09-04T02:03:00.802Z,82.7
2022-09-04T02:04:00.945Z,82.7
2022-09-04T02:05:05.072Z,82.4
2022-09-04T02:06:01.244Z,82
2022-09-04T02:07:00.408Z,82.6
2022-09-04T02:08:00.568Z,82.7
2022-09-04T02:09:00.679Z,82.3
2022-09-04T02:10:00.827Z,82.5
2022-09-04T02:11:00.979Z,82.3
2022-09-04T02:12:01.135Z,82.2
2022-09-04T02:13:00.315Z,82.5
2022-09-04T02:14:00.431Z,82.9
2022-09-04T02:15:00.578Z,82.6
2022-09-04T02:16:00.785Z,82.2
2022-09-04T02:17:00.879Z,82.3
2022-09-04T02:18:01.060Z,82.3
2022-09-04T02:19:01.175Z,82.4
2022-09-04T02:20:00.313Z,82.3
2022-09-04T02:21:00.457Z,82.1
2022-09-04T02:22:00.608Z,82.4
2022-09-04T02:23:00.773Z,82.6
2022-09-04T02:24:00.947Z,82.1
2022-09-04T02:25:01.081Z,81.9
2022-09-04T02:26:01.221Z,82
2022-09-04T02:27:00.373Z,82
2022-09-04T02:28:00.513Z,82.1
2022-09-04T02:29:00.707Z,81.7
2022-09-04T02:30:00.812Z,81.6
2022-09-04T02:31:00.966Z,81.9
2022-09-04T02:32:01.129Z,82.2
2022-09-04T02:33:00.280Z,82.5
2022-09-04T02:34:00.444Z,82
2022-09-04T02:35:00.600Z,81.9
2022-09-04T02:36:00.714Z,81.5
2022-09-04T02:37:00.867Z,81.9
2022-09-04T02:38:01.015Z,82.1
2022-09-04T02:39:01.139Z,82.6
2022-09-04T02:40:00.423Z,82.5
2022-09-04T02:41:00.428Z,81.4
2022-09-04T02:42:00.581Z,81.5
2022-09-04T02:43:00.735Z,81.9
2022-09-04T02:44:00.901Z,82.5
2022-09-04T02:45:01.023Z,83.1
2022-09-04T02:46:01.171Z,83.1
2022-09-04T02:47:00.403Z,83.5
2022-09-04T02:48:00.476Z,83.6
2022-09-04T02:49:00.666Z,83.5
2022-09-04T02:50:00.780Z,82.6
2022-09-04T02:51:00.927Z,82.8
2022-09-04T02:52:01.063Z,82.9
2022-09-04T02:53:01.247Z,83.2
2022-09-04T02:54:00.387Z,83.4
2022-09-04T02:55:00.503Z,83.5
2022-09-04T02:56:00.655Z,83.5
2022-09-04T02:57:00.807Z,83.7
2022-09-04T02:58:00.954Z,83.6
2022-09-04T02:59:01.114Z,83.4
2022-09-04T03:00:01.247Z,83.4
2022-09-04T03:01:00.498Z,83.6
2022-09-04T03:02:00.648Z,84
2022-09-04T03:03:00.706Z,84
2022-09-04T03:04:00.884Z,84
2022-09-04T03:05:01.007Z,84
2022-09-04T03:06:01.149Z,84.1
2022-09-04T03:07:00.282Z,83.8
2022-09-04T03:08:00.436Z,84
2022-09-04T03:09:00.601Z,84.2
2022-09-04T03:10:00.722Z,84.4
2022-09-04T03:11:00.871Z,84.5
2022-09-04T03:12:01.030Z,84.1
2022-09-04T03:13:01.171Z,84
2022-09-04T03:14:00.333Z,84.1
2022-09-04T03:15:00.490Z,84.1
2022-09-04T03:16:00.728Z,83.4
2022-09-04T03:17:00.779Z,83.1
2022-09-04T03:18:00.916Z,83.6
2022-09-04T03:19:01.060Z,84.1
2022-09-04T03:20:01.243Z,84.4
2022-09-04T03:21:00.358Z,84.1
2022-09-04T03:22:00.504Z,84.2
2022-09-04T03:23:00.663Z,84.2
2022-09-04T03:24:00.817Z,84.2
2022-09-04T03:25:01.005Z,84.5
2022-09-04T03:26:01.115Z,84.6
2022-09-04T03:27:01.258Z,84.6
2022-09-04T03:28:00.394Z,84.7
2022-09-04T03:29:00.546Z,84.5
2022-09-04T03:30:00.717Z,84.6
2022-09-04T03:31:00.941Z,84.6
2022-09-04T03:32:01.244Z,84.6
2022-09-04T03:33:01.147Z,84.5
2022-09-04T03:34:00.301Z,84.5
2022-09-04T03:35:00.441Z,84.3
2022-09-04T03:36:00.619Z,84.4
2022-09-04T03:37:00.750Z,84.4
2022-09-04T03:38:00.913Z,84.5
2022-09-04T03:39:01.064Z,84.4
2022-09-04T03:40:01.247Z,84.7
2022-09-04T03:41:00.380Z,84.1
2022-09-04T03:42:00.504Z,84.4
2022-09-04T03:43:00.661Z,84.1
2022-09-04T03:44:00.806Z,83.6
2022-09-04T03:45:00.964Z,83.7
2022-09-04T03:46:01.127Z,83.9
2022-09-04T03:47:00.384Z,83.8
2022-09-04T03:48:00.406Z,83.3
2022-09-04T03:49:00.555Z,83.7
2022-09-04T03:50:00.713Z,83.7
2022-09-04T03:51:00.882Z,83.5
2022-09-04T03:52:01.022Z,83.3
2022-09-04T03:53:01.161Z,83.8
2022-09-04T03:54:00.303Z,83.8
2022-09-04T03:55:00.452Z,83.3
2022-09-04T03:56:00.597Z,83.4
2022-09-04T03:57:00.755Z,83.7
2022-09-04T03:58:00.906Z,83.9
2022-09-04T03:59:01.041Z,84
2022-09-04T04:00:01.190Z,83.9
2022-09-04T04:01:00.374Z,83.9
2022-09-04T04:02:00.480Z,83.8
2022-09-04T04:03:00.716Z,84.3
2022-09-04T04:04:00.768Z,84.5
2022-09-04T04:05:00.927Z,84
2022-09-04T04:06:01.059Z,84.1
2022-09-04T04:07:01.206Z,83.9
2022-09-04T04:08:00.375Z,83.4
2022-09-04T04:09:00.530Z,83.6
2022-09-04T04:10:00.667Z,83.7
2022-09-04T04:11:00.808Z,83.7
2022-09-04T04:12:00.963Z,83.5
2022-09-04T04:13:01.130Z,83.4
2022-09-04T04:14:01.253Z,83.4
2022-09-04T04:15:00.419Z,83.5
2022-09-04T04:16:00.618Z,83.3
2022-09-04T04:17:00.704Z,83.1
2022-09-04T04:18:00.856Z,83
2022-09-04T04:19:01.019Z,83.2
2022-09-04T04:20:01.147Z,83.3
2022-09-04T04:21:00.318Z,83.6
2022-09-04T04:22:00.445Z,82.8
2022-09-04T04:23:00.579Z,82.5
2022-09-04T04:24:00.737Z,83
2022-09-04T04:25:00.891Z,83.3
2022-09-04T04:26:01.065Z,83.6
2022-09-04T04:27:01.178Z,83.4
2022-09-04T04:28:00.324Z,83.4
2022-09-04T04:29:00.481Z,83.6
2022-09-04T04:30:00.654Z,83.7
2022-09-04T04:31:00.846Z,83.6
2022-09-04T04:32:00.942Z,83.7
2022-09-04T04:33:01.087Z,83.6
2022-09-04T04:34:01.235Z,84.2
2022-09-04T04:35:00.365Z,84.6
2022-09-04T04:36:00.542Z,84.6
2022-09-04T04:37:00.676Z,84.8
2022-09-04T04:38:00.810Z,84.9
2022-09-04T04:39:00.976Z,84.8
2022-09-04T04:40:01.172Z,84.9
2022-09-04T04:41:00.289Z,85
2022-09-04T04:42:00.414Z,85
2022-09-04T04:43:00.572Z,85.1
2022-09-04T04:44:00.723Z,84.7
2022-09-04T04:45:00.911Z,84.8
2022-09-04T04:46:01.023Z,84.8
2022-09-04T04:47:01.181Z,84.5
2022-09-04T04:48:00.313Z,84.8
2022-09-04T04:49:00.468Z,85
2022-09-04T04:50:00.647Z,84.8
2022-09-04T04:51:00.775Z,84.8
2022-09-04T04:52:00.913Z,85.1
2022-09-04T04:53:01.063Z,84.8
2022-09-04T04:54:01.217Z,84.1
2022-09-04T04:55:00.402Z,84.2
2022-09-04T04:56:00.512Z,84.5
2022-09-04T04:57:00.663Z,84.6
2022-09-04T04:58:00.812Z,84.9
2022-09-04T04:59:00.959Z,85
2022-09-04T05:00:01.148Z,85
2022-09-04T05:01:00.272Z,85
2022-09-04T05:02:00.572Z,84.8
2022-09-04T05:03:00.611Z,84.8
2022-09-04T05:04:00.714Z,84.8
2022-09-04T05:05:00.898Z,85
2022-09-04T05:06:01.037Z,85.2
2022-09-04T05:07:01.193Z,85.1
2022-09-04T05:08:02.855Z,85
2022-09-04T05:09:00.463Z,85.1
2022-09-04T05:10:00.641Z,85
2022-09-04T05:11:00.765Z,84.6
2022-09-04T05:12:00.923Z,84.3
2022-09-04T05:13:01.070Z,84.6
2022-09-04T05:14:01.229Z,84.9
2022-09-04T05:15:00.402Z,84.7
2022-09-04T05:16:08.868Z,85.4
2022-09-04T05:17:00.724Z,85.6
2022-09-04T05:18:00.812Z,85.1
2022-09-04T05:19:00.956Z,85.3
2022-09-04T05:20:01.120Z,85.7
2022-09-04T05:21:01.275Z,85.7
2022-09-04T05:22:00.404Z,85.8
2022-09-04T05:23:00.569Z,85.8
2022-09-04T05:24:00.722Z,85.8
2022-09-04T05:25:01.200Z,86
2022-09-04T05:26:01.009Z,85.6
2022-09-04T05:27:01.144Z,85.5
2022-09-04T05:28:00.290Z,85.6
2022-09-04T05:29:00.427Z,85.5
2022-09-04T05:30:00.617Z,85.3
2022-09-04T05:31:00.801Z,85.8
2022-09-04T05:32:00.866Z,85.8
2022-09-04T05:33:01.018Z,85.8
2022-09-04T05:34:01.158Z,85.8
2022-09-04T05:35:00.324Z,86.1
2022-09-04T05:36:00.483Z,86.1
2022-09-04T05:37:00.615Z,85.8
2022-09-04T05:38:00.763Z,85.9
2022-09-04T05:39:00.916Z,85.9
2022-09-04T05:40:01.117Z,86
2022-09-04T05:41:01.227Z,86.1
2022-09-04T05:42:04.512Z,86
2022-09-04T05:43:00.501Z,86.1
2022-09-04T05:44:00.637Z,85.9
2022-09-04T05:45:00.791Z,86
2022-09-04T05:46:00.984Z,86
2022-09-04T05:47:01.110Z,86.1
2022-09-04T05:48:01.247Z,85.9
2022-09-04T05:49:00.384Z,85.9
2022-09-04T05:50:00.533Z,86
2022-09-04T05:51:00.682Z,86
2022-09-04T05:52:00.858Z,86
2022-09-04T05:53:00.990Z,86
2022-09-04T05:54:01.227Z,85.6
2022-09-04T05:55:00.279Z,84.7
2022-09-04T05:56:00.427Z,85.1
2022-09-04T05:57:00.577Z,85.5
2022-09-04T05:58:00.723Z,85.7
2022-09-04T05:59:00.895Z,85.6
2022-09-04T06:00:01.013Z,85.3
2022-09-04T06:01:01.162Z,85.1
2022-09-04T06:02:00.379Z,85.6
2022-09-04T06:03:00.555Z,85.1
2022-09-04T06:04:00.627Z,84.8
2022-09-04T06:05:00.776Z,85
2022-09-04T06:06:00.906Z,84.8
2022-09-04T06:07:01.048Z,84.8
2022-09-04T06:08:01.203Z,85.2
2022-09-04T06:09:00.349Z,84.7
2022-09-04T06:10:00.510Z,84.4
2022-09-04T06:11:00.667Z,84.8
2022-09-04T06:12:00.797Z,84.5
2022-09-04T06:13:00.955Z,84.4
2022-09-04T06:14:01.096Z,84.4
2022-09-04T06:15:01.247Z,84.1
2022-09-04T06:16:00.422Z,84.5
2022-09-04T06:17:00.542Z,84.4
2022-09-04T06:18:00.686Z,84
2022-09-04T06:19:00.832Z,84.3
2022-09-04T06:20:00.980Z,84
2022-09-04T06:21:01.160Z,83.7
2022-09-04T06:22:00.274Z,83.8
2022-09-04T06:23:03.021Z,83.7
2022-09-04T06:24:00.573Z,83.9
2022-09-04T06:25:00.727Z,83.8
2022-09-04T06:26:00.886Z,84
2022-09-04T06:27:01.047Z,83.2
2022-09-04T06:28:01.167Z,83.6
2022-09-04T06:29:03.568Z,83.8
2022-09-04T06:30:00.471Z,83.3
2022-09-04T06:31:00.658Z,83
2022-09-04T06:32:00.786Z,82.8
2022-09-04T06:33:00.916Z,83.3
2022-09-04T06:34:01.066Z,83.7
2022-09-04T06:35:01.213Z,83.8
2022-09-04T06:36:00.363Z,83.4
2022-09-04T06:37:00.550Z,83.4
2022-09-04T06:38:00.663Z,83.4
2022-09-04T06:39:00.818Z,82.7
2022-09-04T06:40:01.078Z,82.7
2022-09-04T06:41:01.129Z,82.3
2022-09-04T06:42:00.288Z,81.9
2022-09-04T06:43:00.407Z,82.1
2022-09-04T06:44:00.567Z,81.8
2022-09-04T06:45:00.734Z,82.2
2022-09-04T06:46:02.481Z,81.8
2022-09-04T06:47:01.059Z,81.6
2022-09-04T06:48:01.209Z,81.8
2022-09-04T06:49:00.346Z,81.6
2022-09-04T06:50:00.487Z,81.3
2022-09-04T06:51:00.654Z,81.1
2022-09-04T06:52:00.771Z,81.6
2022-09-04T06:53:04.145Z,81.5
2022-09-04T06:54:01.075Z,81.7
2022-09-04T06:55:01.206Z,82.1
2022-09-04T06:56:00.358Z,81.7
2022-09-04T06:57:00.510Z,81.3
2022-09-04T06:58:00.709Z,81.8
2022-09-04T06:59:01.643Z,81.6
2022-09-04T07:00:00.970Z,81.8
2022-09-04T07:01:01.126Z,82.4
2022-09-04T07:02:00.395Z,81.4
2022-09-04T07:03:00.438Z,81.1
2022-09-04T07:04:00.569Z,81.1
2022-09-04T07:05:00.715Z,80.5
2022-09-04T07:06:00.899Z,80.7
2022-09-04T07:07:01.039Z,80.7
2022-09-04T07:08:01.151Z,80.7
2022-09-04T07:09:00.310Z,80.6
2022-09-04T07:10:01.773Z,80.3
2022-09-04T07:11:00.636Z,80.2
2022-09-04T07:12:00.768Z,80.3
2022-09-04T07:13:00.904Z,79.9
2022-09-04T07:14:01.065Z,79.3
2022-09-04T07:15:01.225Z,79.6
2022-09-04T07:16:00.460Z,79.3
2022-09-04T07:17:00.507Z,79.5
2022-09-04T07:18:01.518Z,79.4
2022-09-04T07:19:00.799Z,79.5
2022-09-04T07:20:00.958Z,79.1
2022-09-04T07:21:01.136Z,78.5
2022-09-04T07:23:00.354Z,78.9
2022-09-04T07:24:01.209Z,78.9
2022-09-04T07:25:00.677Z,78.7
2022-09-04T07:26:00.859Z,78.6
2022-09-04T07:27:01.035Z,78.6
2022-09-04T07:28:01.128Z,79
2022-09-04T07:29:00.275Z,79.1
2022-09-04T07:30:00.451Z,78.3
2022-09-04T07:31:00.581Z,78.3
2022-09-04T07:32:00.738Z,77.4
2022-09-04T07:33:00.895Z,77.2
2022-09-04T07:34:01.024Z,78.1
2022-09-04T07:35:01.162Z,78.6
2022-09-04T07:36:00.307Z,78.4
2022-09-04T07:37:00.452Z,77.1
2022-09-04T07:38:00.628Z,77.7
2022-09-04T07:39:00.757Z,77.9
2022-09-04T07:40:00.967Z,78.1
2022-09-04T07:41:01.050Z,77.9
2022-09-04T07:42:01.210Z,77.2
2022-09-04T07:43:00.370Z,77.6
2022-09-04T07:44:00.502Z,78
2022-09-04T07:45:00.653Z,78.1
2022-09-04T07:46:00.813Z,77.1
2022-09-04T07:47:00.951Z,77.2
2022-09-04T07:48:01.126Z,77.6
2022-09-04T07:49:01.248Z,78.2
2022-09-04T07:50:00.403Z,77.3
2022-09-04T07:51:00.538Z,77.2
2022-09-04T07:52:00.702Z,77.4
2022-09-04T07:53:03.635Z,76.9
2022-09-04T07:54:00.991Z,77.2
2022-09-04T07:55:01.134Z,76.7
2022-09-04T07:56:00.276Z,77
2022-09-04T07:57:00.438Z,77.5
2022-09-04T07:58:00.605Z,76.7
2022-09-04T07:59:00.771Z,77.2
2022-09-04T08:00:00.871Z,75.6
2022-09-04T08:01:01.016Z,75.5
2022-09-04T08:02:01.211Z,75.3
2022-09-04T08:03:00.322Z,75.4
2022-09-04T08:04:00.450Z,75.2
2022-09-04T08:05:00.643Z,75.8
2022-09-04T08:06:00.739Z,75.5
2022-09-04T08:07:00.881Z,75.7
2022-09-04T08:08:01.046Z,75.6
2022-09-04T08:09:01.205Z,75.1
2022-09-04T08:10:00.334Z,75
2022-09-04T08:11:00.482Z,75
2022-09-04T08:12:00.623Z,74.8
2022-09-04T08:13:00.767Z,74.8
2022-09-04T08:14:00.934Z,74.8
2022-09-04T08:15:01.055Z,74.6
2022-09-04T08:16:01.271Z,74.6
2022-09-04T08:17:00.352Z,75.1
2022-09-04T08:18:00.499Z,74.6
2022-09-04T08:19:00.653Z,73.3
2022-09-04T08:20:00.771Z,73
2022-09-04T08:21:00.923Z,72.8
2022-09-04T08:22:01.063Z,72.9
2022-09-04T08:23:01.208Z,72.5
2022-09-04T08:24:00.381Z,72.8
2022-09-04T08:25:00.503Z,73
2022-09-04T08:26:00.651Z,72.8
2022-09-04T08:27:00.809Z,71.8
2022-09-04T08:28:00.950Z,71.9
2022-09-04T08:29:01.119Z,71.7
2022-09-04T08:30:01.242Z,71.5
2022-09-04T08:31:00.450Z,71.1
2022-09-04T08:32:00.531Z,70.8
2022-09-04T08:33:00.690Z,71.1
2022-09-04T08:34:00.866Z,71.2
2022-09-04T08:35:00.990Z,71.6
2022-09-04T08:36:01.139Z,70.8
2022-09-04T08:37:00.291Z,71.2
2022-09-04T08:38:00.441Z,71.3
2022-09-04T08:39:03.487Z,71.4
2022-09-04T08:40:00.850Z,71.2
2022-09-04T08:41:00.892Z,71.2
2022-09-04T08:42:01.031Z,70.9
2022-09-04T08:43:01.177Z,70.6
2022-09-04T08:44:00.339Z,69.9
2022-09-04T08:45:00.485Z,69.7
2022-09-04T08:46:00.645Z,70.2
2022-09-04T08:47:00.776Z,70.5
2022-09-04T08:48:00.925Z,70.2
2022-09-04T08:49:01.103Z,69.2
2022-09-04T08:50:01.228Z,69.4
2022-09-04T08:51:00.367Z,69.3
2022-09-04T08:52:00.515Z,70.4
2022-09-04T08:53:03.731Z,68.6
2022-09-04T08:54:00.835Z,68.9
2022-09-04T08:55:00.950Z,69.7
2022-09-04T08:56:01.120Z,68.9
2022-09-04T08:57:00.266Z,69.4
2022-09-04T08:58:00.414Z,69.2
2022-09-04T08:59:00.591Z,68.5
2022-09-04T09:00:00.708Z,68.8
2022-09-04T09:01:00.890Z,70
2022-09-04T09:02:01.000Z,69.3
2022-09-04T09:03:01.135Z,69.2
2022-09-04T09:04:00.318Z,68.7
2022-09-04T09:05:00.432Z,69
2022-09-04T09:06:00.590Z,69.3
2022-09-04T09:07:00.738Z,69.1
2022-09-04T09:08:00.879Z,67.8
2022-09-04T09:09:01.055Z,69.4
2022-09-04T09:10:01.205Z,69
2022-09-04T09:11:00.337Z,67.5
2022-09-04T09:12:00.482Z,68.1
2022-09-04T09:13:00.628Z,68.5
2022-09-04T09:14:02.065Z,69.5
2022-09-04T09:15:00.939Z,69.5
2022-09-04T09:16:01.085Z,69.5
2022-09-04T09:17:01.325Z,69.3
2022-09-04T09:18:00.399Z,69.2
2022-09-04T09:19:00.507Z,69
2022-09-04T09:20:00.657Z,69.2
2022-09-04T09:21:00.798Z,68.5
2022-09-04T09:22:00.955Z,68.3
2022-09-04T09:23:01.127Z,69.3
2022-09-04T09:24:01.243Z,69.7
2022-09-04T09:25:00.385Z,69.8
2022-09-04T09:26:00.535Z,68
2022-09-04T09:27:00.700Z,67.8
2022-09-04T09:28:00.864Z,68.3
2022-09-04T09:29:01.017Z,68.7
2022-09-04T09:30:01.144Z,68.3
2022-09-04T09:31:00.395Z,68.4
2022-09-04T09:32:03.617Z,68.6
2022-09-04T09:33:00.585Z,69.2
2022-09-04T09:34:00.737Z,68.5
2022-09-04T09:35:00.887Z,67.9
2022-09-04T09:36:01.011Z,68.9
2022-09-04T09:37:01.164Z,68.7
2022-09-04T09:38:04.335Z,68.7
2022-09-04T09:39:00.465Z,68.9
2022-09-04T09:40:00.657Z,68.7
2022-09-04T09:41:00.772Z,67
2022-09-04T09:42:00.922Z,67.2
2022-09-04T09:43:01.081Z,67
2022-09-04T09:44:01.234Z,66.7
2022-09-04T09:45:00.412Z,67.7
2022-09-04T09:46:00.552Z,67.4
2022-09-04T09:47:00.665Z,68.2
2022-09-04T09:48:00.829Z,67.4
2022-09-04T09:49:00.969Z,66.7
2022-09-04T09:50:01.153Z,66.7
2022-09-04T09:51:00.261Z,66.6
2022-09-04T09:52:00.411Z,66.1
2022-09-04T09:53:00.559Z,66.3
2022-09-04T09:54:00.713Z,65.9
2022-09-04T09:55:00.882Z,66.7
2022-09-04T09:56:01.074Z,67.6
2022-09-04T09:57:01.221Z,67
2022-09-04T09:58:00.332Z,65.4
2022-09-04T09:59:00.497Z,66
2022-09-04T10:00:00.638Z,66.4
2022-09-04T10:01:02.559Z,67.5
2022-09-04T10:02:00.954Z,65.8
2022-09-04T10:03:01.054Z,65.2
2022-09-04T10:04:01.233Z,66.3
2022-09-04T10:05:00.368Z,65.9
2022-09-04T10:06:00.541Z,66.1
2022-09-04T10:07:00.696Z,67.7
2022-09-04T10:08:00.825Z,67.5
2022-09-04T10:09:00.981Z,67.5
2022-09-04T10:10:01.135Z,67.9
2022-09-04T10:11:00.267Z,67.4
2022-09-04T10:12:00.444Z,67.7
2022-09-04T10:13:00.584Z,67.3
2022-09-04T10:14:00.717Z,67.4
2022-09-04T10:15:00.860Z,67
2022-09-04T10:16:01.014Z,67.1
2022-09-04T10:17:01.238Z,66.1
2022-09-04T10:18:00.322Z,66.2
2022-09-04T10:19:00.474Z,67.1
2022-09-04T10:20:00.640Z,66.8
2022-09-04T10:21:00.787Z,67
2022-09-04T10:22:00.955Z,67.4
2022-09-04T10:23:01.103Z,66.9
2022-09-04T10:24:01.231Z,68
2022-09-04T10:25:00.370Z,67.5
2022-09-04T10:26:00.525Z,66.6
2022-09-04T10:27:00.683Z,66.6
2022-09-04T10:28:00.842Z,66.6
2022-09-04T10:29:00.964Z,66.3
2022-09-04T10:30:01.109Z,66.2
2022-09-04T10:31:01.280Z,66
2022-09-04T10:32:00.399Z,66.5
2022-09-04T10:33:00.567Z,66.6
2022-09-04T10:34:00.698Z,67.2
2022-09-04T10:35:00.849Z,67.6
2022-09-04T10:36:00.990Z,67.1
2022-09-04T10:37:01.140Z,66.2
2022-09-04T10:38:00.304Z,66.4
2022-09-04T10:39:00.433Z,66.3
2022-09-04T10:40:00.702Z,66.2
2022-09-04T10:41:00.732Z,65.4
2022-09-04T10:42:00.874Z,65.4
2022-09-04T10:43:01.041Z,65.7
2022-09-04T10:44:01.161Z,65.4
2022-09-04T10:45:00.301Z,66.5
2022-09-04T10:46:00.524Z,65.6
2022-09-04T10:47:00.587Z,65.8
2022-09-04T10:48:00.751Z,66.3
2022-09-04T10:49:00.884Z,65.3
2022-09-04T10:50:01.034Z,65.1
2022-09-04T10:51:01.163Z,64.5
2022-09-04T10:52:00.310Z,65.4
2022-09-04T10:53:00.490Z,65.3
2022-09-04T10:54:04.246Z,65.8
2022-09-04T10:55:00.792Z,65.7
2022-09-04T10:56:00.947Z,66.1
2022-09-04T10:57:01.103Z,66
2022-09-04T10:58:01.280Z,66.9
2022-09-04T10:59:00.405Z,65.9
2022-09-04T11:00:00.546Z,65.7
2022-09-04T11:01:00.774Z,66.4
2022-09-04T11:02:00.896Z,65.5
2022-09-04T11:03:00.991Z,66.9
2022-09-04T11:04:01.119Z,65.2
2022-09-04T11:05:00.263Z,64.9
2022-09-04T11:06:00.419Z,65.4
2022-09-04T11:07:00.558Z,65.8
2022-09-04T11:08:00.728Z,65.7
2022-09-04T11:09:00.861Z,66.2
2022-09-04T11:10:01.002Z,65.3
2022-09-04T11:11:01.138Z,65.4
2022-09-04T11:12:00.292Z,66.2
2022-09-04T11:13:00.468Z,65.1
2022-09-04T11:14:00.603Z,65.1
2022-09-04T11:15:00.759Z,66.4
2022-09-04T11:16:00.901Z,64.7
2022-09-04T11:17:01.152Z,65.7
2022-09-04T11:18:01.242Z,66.2
2022-09-04T11:19:00.360Z,66
2022-09-04T11:20:00.503Z,65.7
2022-09-04T11:21:00.651Z,65.5
2022-09-04T11:22:00.803Z,65.2
2022-09-04T11:23:00.974Z,66.1
2022-09-04T11:24:01.092Z,66.1
2022-09-04T11:25:01.601Z,66.4
2022-09-04T11:26:00.383Z,65.3
2022-09-04T11:27:03.568Z,65.6
2022-09-04T11:28:00.684Z,66.9
2022-09-04T11:29:00.805Z,65.9
2022-09-04T11:30:00.961Z,65.1
2022-09-04T11:31:01.107Z,64.6
2022-09-04T11:32:01.355Z,65.5
2022-09-04T11:33:00.412Z,65.8
2022-09-04T11:34:00.544Z,64.8
2022-09-04T11:35:00.696Z,65.8
2022-09-04T11:36:00.845Z,64.9
2022-09-04T11:37:00.997Z,66.1
2022-09-04T11:38:01.157Z,64.7
2022-09-04T11:39:00.283Z,65.5
2022-09-04T11:40:00.501Z,65.7
2022-09-04T11:41:00.584Z,66
2022-09-04T11:42:00.737Z,65
2022-09-04T11:43:00.907Z,64.2
2022-09-04T11:44:01.038Z,64.5
2022-09-04T11:45:01.178Z,65.6
2022-09-04T11:46:00.442Z,64.5
2022-09-04T11:47:00.477Z,64.2
2022-09-04T11:48:00.654Z,64.1
2022-09-04T11:49:00.774Z,64
2022-09-04T11:50:00.933Z,63.1
2022-09-04T11:51:01.072Z,63.1
2022-09-04T11:52:01.204Z,64.2
2022-09-04T11:53:00.378Z,64.8
2022-09-04T11:54:00.525Z,65.4
2022-09-04T11:55:00.656Z,65.8
2022-09-04T11:56:00.844Z,66.8
2022-09-04T11:57:00.993Z,67.4
2022-09-04T11:58:01.160Z,67.7
2022-09-04T11:59:00.271Z,67.6
2022-09-04T12:00:00.426Z,67.1
2022-09-04T12:01:00.573Z,66.2
2022-09-04T12:02:00.754Z,66.4
2022-09-04T12:03:00.879Z,64
2022-09-04T12:04:01.116Z,65.1
2022-09-04T12:05:01.162Z,65.4
2022-09-04T12:06:00.324Z,64.6
2022-09-04T12:07:02.431Z,64.4
2022-09-04T12:08:00.612Z,65.4
2022-09-04T12:09:00.797Z,63.7
2022-09-04T12:10:00.936Z,65
2022-09-04T12:11:01.075Z,64
2022-09-04T12:12:01.244Z,64.1
2022-09-04T12:13:00.381Z,64.6
2022-09-04T12:14:00.530Z,64.7
2022-09-04T12:15:07.564Z,64.3
2022-09-04T12:16:00.910Z,65.1
2022-09-04T12:17:00.986Z,65.7
2022-09-04T12:18:01.148Z,66.3
2022-09-04T12:19:00.280Z,64.8
2022-09-04T12:20:00.424Z,63.3
2022-09-04T12:21:00.583Z,63.7
2022-09-04T12:22:00.726Z,65.8
2022-09-04T12:23:00.893Z,64
2022-09-04T12:24:01.032Z,64.8
2022-09-04T12:25:01.176Z,65.6
2022-09-04T12:26:00.324Z,64.6
2022-09-04T12:27:00.455Z,64.3
2022-09-04T12:28:00.625Z,65.1
2022-09-04T12:29:00.765Z,64.3
2022-09-04T12:30:00.901Z,64.6
2022-09-04T12:31:01.052Z,63.8
2022-09-04T12:32:01.239Z,64.8
2022-09-04T12:33:00.370Z,66.3
2022-09-04T12:34:00.485Z,64.3
2022-09-04T12:35:00.629Z,65.5
2022-09-04T12:36:00.801Z,66.5
2022-09-04T12:37:00.909Z,65.4
2022-09-04T12:38:01.082Z,65.2
2022-09-04T12:39:01.222Z,66
2022-09-04T12:40:00.507Z,66.6
2022-09-04T12:41:00.502Z,65.4
2022-09-04T12:42:00.658Z,63.7
2022-09-04T12:43:00.815Z,63.6
2022-09-04T12:44:00.981Z,65
2022-09-04T12:45:01.096Z,65.8
2022-09-04T12:46:04.284Z,64.1
2022-09-04T12:47:00.395Z,64.4
2022-09-04T12:48:00.546Z,63.8
2022-09-04T12:49:00.712Z,62.8
2022-09-04T12:50:00.851Z,63.1
2022-09-04T12:51:00.991Z,64.1
2022-09-04T12:52:01.146Z,63.1
2022-09-04T12:53:00.297Z,64
2022-09-04T12:54:00.461Z,63.5
2022-09-04T12:55:00.577Z,63.6
2022-09-04T12:56:00.733Z,63.3
2022-09-04T12:57:00.882Z,64.4
2022-09-04T12:58:01.085Z,64.8
2022-09-04T12:59:01.175Z,64.3
2022-09-04T13:00:00.305Z,62.8
2022-09-04T13:01:00.603Z,63.5
2022-09-04T13:02:00.690Z,63.9
2022-09-04T13:03:00.745Z,63.3
2022-09-04T13:04:00.914Z,64
2022-09-04T13:05:01.074Z,62.4
2022-09-04T13:06:01.188Z,63.3
2022-09-04T13:07:00.334Z,63
2022-09-04T13:08:00.475Z,64.7
2022-09-04T13:09:00.651Z,63.1
2022-09-04T13:10:00.788Z,62.6
2022-09-04T13:11:00.945Z,62.6
2022-09-04T13:12:01.088Z,63.7
2022-09-04T13:13:01.231Z,62.6
2022-09-04T13:14:00.396Z,62.6
2022-09-04T13:15:00.526Z,63.3
2022-09-04T13:16:00.701Z,62.5
2022-09-04T13:17:00.812Z,61.9
2022-09-04T13:18:00.959Z,63.3
2022-09-04T13:19:01.120Z,61.9
2022-09-04T13:20:01.252Z,60.8
2022-09-04T13:21:00.383Z,61.6
2022-09-04T13:22:00.537Z,62.7
2022-09-04T13:23:00.693Z,62.4
2022-09-04T13:24:00.851Z,61.2
2022-09-04T13:25:01.009Z,60.9
2022-09-04T13:26:01.155Z,62.1